New York, New York
Current Conditions -  °F | °C
As of 4:51 AM on Saturday 29 Nov 2014 (Local Time) from KNYC Reporting Station
Clear Clear  
Wind Chill: 28°   Ceiling: Unl
Heat Index: 28°   Visibility: 10mi
Dew Point: 11°   Wind: 3mph
Humidity: 49%   Direction: 290°WNW
Pressure: 30.32"   Gusts: NA
Location:  40.71°N, 74.01°W
Report Text: KNYC 290951Z AUTO 29003KT 10SM CLR M02/M12 A3032 RMK AO2 SLP261 T10221117 $
Loading
Personal Weather Stations






























Interactive Weather Map New forecast layout! Learn more

10-Day Weather Forecast

Advertisements
Track Severe Weather on mobile